sensor_id;sensor_type;location;lat;lon;timestamp;pressure;altitude;pressure_sealevel;temperature;humidity
50105;BME280;47690;39.202;-77.198;2023-07-16T00:02:06;99560.69;;;58.21;13.02
50105;BME280;47690;39.202;-77.198;2023-07-16T00:04:38;99559.97;;;57.89;13.29
50105;BME280;47690;39.202;-77.198;2023-07-16T00:07:08;99560.69;;;58.21;12.31
50105;BME280;47690;39.202;-77.198;2023-07-16T00:09:44;99553.09;;;58.38;12.28
50105;BME280;47690;39.202;-77.198;2023-07-16T00:12:14;99548.28;;;58.15;12.46
50105;BME280;47690;39.202;-77.198;2023-07-16T00:14:44;99554.91;;;58.10;12.85
50105;BME280;47690;39.202;-77.198;2023-07-16T00:17:14;99550.25;;;58.34;12.44
50105;BME280;47690;39.202;-77.198;2023-07-16T00:19:44;99549.66;;;58.25;12.41
50105;BME280;47690;39.202;-77.198;2023-07-16T00:22:16;99544.06;;;58.21;12.22
50105;BME280;47690;39.202;-77.198;2023-07-16T00:24:48;99541.72;;;58.23;12.25
50105;BME280;47690;39.202;-77.198;2023-07-16T00:27:21;99552.16;;;58.30;12.86
50105;BME280;47690;39.202;-77.198;2023-07-16T00:29:54;99551.16;;;58.38;12.50
50105;BME280;47690;39.202;-77.198;2023-07-16T00:32:28;99544.03;;;59.04;11.61
50105;BME280;47690;39.202;-77.198;2023-07-16T00:35:04;99559.03;;;58.36;12.20
50105;BME280;47690;39.202;-77.198;2023-07-16T00:37:34;99552.50;;;57.89;12.48
50105;BME280;47690;39.202;-77.198;2023-07-16T00:40:11;99553.53;;;57.84;12.56
50105;BME280;47690;39.202;-77.198;2023-07-16T01:04:45;99563.72;;;57.96;12.26
50105;BME280;47690;39.202;-77.198;2023-07-16T01:10:56;99564.28;;;57.86;13.27
50105;BME280;47690;39.202;-77.198;2023-07-16T01:13:29;99566.19;;;57.66;13.40
50105;BME280;47690;39.202;-77.198;2023-07-16T01:16:02;99568.25;;;57.69;13.36
50105;BME280;47690;39.202;-77.198;2023-07-16T01:18:32;99575.41;;;57.70;13.15
50105;BME280;47690;39.202;-77.198;2023-07-16T01:21:01;99570.31;;;57.72;12.66
50105;BME280;47690;39.202;-77.198;2023-07-16T01:23:49;99578.09;;;58.02;13.23
50105;BME280;47690;39.202;-77.198;2023-07-16T01:27:00;99576.88;;;58.39;12.84
50105;BME280;47690;39.202;-77.198;2023-07-16T01:29:45;99568.63;;;58.03;13.30
50105;BME280;47690;39.202;-77.198;2023-07-16T01:32:18;99562.59;;;59.77;11.83
50105;BME280;47690;39.202;-77.198;2023-07-16T01:34:52;99559.16;;;58.04;12.85
50105;BME280;47690;39.202;-77.198;2023-07-16T01:37:24;99564.22;;;57.66;13.43
50105;BME280;47690;39.202;-77.198;2023-07-16T01:39:54;99559.06;;;57.49;12.89
50105;BME280;47690;39.202;-77.198;2023-07-16T01:42:24;99560.81;;;57.37;13.62
50105;BME280;47690;39.202;-77.198;2023-07-16T01:44:53;99554.34;;;57.17;13.37
50105;BME280;47690;39.202;-77.198;2023-07-16T01:47:45;99562.81;;;57.24;13.04
50105;BME280;47690;39.202;-77.198;2023-07-16T01:50:16;99553.97;;;57.35;12.92
50105;BME280;47690;39.202;-77.198;2023-07-16T01:52:46;99543.69;;;57.35;13.31
50105;BME280;47690;39.202;-77.198;2023-07-16T01:55:18;99543.09;;;57.26;13.67
50105;BME280;47690;39.202;-77.198;2023-07-16T01:58:03;99541.03;;;57.55;13.50
50105;BME280;47690;39.202;-77.198;2023-07-16T02:00:34;99537.56;;;57.42;13.04
50105;BME280;47690;39.202;-77.198;2023-07-16T02:03:04;99551.22;;;57.35;13.14
50105;BME280;47690;39.202;-77.198;2023-07-16T02:05:44;99568.63;;;57.51;13.16
50105;BME280;47690;39.202;-77.198;2023-07-16T02:09:09;99586.75;;;57.81;13.52
50105;BME280;47690;39.202;-77.198;2023-07-16T02:12:12;99600.38;;;58.25;13.18
50105;BME280;47690;39.202;-77.198;2023-07-16T02:15:13;99589.03;;;57.79;12.82
50105;BME280;47690;39.202;-77.198;2023-07-16T02:18:37;99604.31;;;57.73;12.92
50105;BME280;47690;39.202;-77.198;2023-07-16T02:21:08;99621.13;;;57.48;13.28
50105;BME280;47690;39.202;-77.198;2023-07-16T02:23:37;99652.72;;;57.30;13.55
50105;BME280;47690;39.202;-77.198;2023-07-16T02:26:20;99657.13;;;57.64;12.72
50105;BME280;47690;39.202;-77.198;2023-07-16T02:29:16;99657.47;;;57.30;13.63
50105;BME280;47690;39.202;-77.198;2023-07-16T02:32:16;99669.34;;;57.47;13.54
50105;BME280;47690;39.202;-77.198;2023-07-16T02:35:24;99695.44;;;57.78;13.29
50105;BME280;47690;39.202;-77.198;2023-07-16T02:38:12;99672.91;;;57.63;12.57
50105;BME280;47690;39.202;-77.198;2023-07-16T02:41:00;99691.16;;;57.80;12.88
50105;BME280;47690;39.202;-77.198;2023-07-16T02:44:25;99718.19;;;58.55;12.00
50105;BME280;47690;39.202;-77.198;2023-07-16T02:47:02;99719.72;;;57.68;12.41
50105;BME280;47690;39.202;-77.198;2023-07-16T02:50:58;99708.72;;;58.20;13.02
50105;BME280;47690;39.202;-77.198;2023-07-16T02:54:04;99689.06;;;58.25;12.05
50105;BME280;47690;39.202;-77.198;2023-07-16T02:56:58;99676.16;;;57.81;12.52
50105;BME280;47690;39.202;-77.198;2023-07-16T02:59:44;99648.72;;;57.60;13.23
50105;BME280;47690;39.202;-77.198;2023-07-16T03:02:29;99638.53;;;57.64;13.04
50105;BME280;47690;39.202;-77.198;2023-07-16T03:05:00;99650.03;;;57.34;12.94
50105;BME280;47690;39.202;-77.198;2023-07-16T03:07:30;99634.66;;;57.21;12.62
50105;BME280;47690;39.202;-77.198;2023-07-16T03:10:00;99622.91;;;56.95;13.29
50105;BME280;47690;39.202;-77.198;2023-07-16T03:12:30;99611.50;;;56.97;13.07
50105;BME280;47690;39.202;-77.198;2023-07-16T03:15:02;99603.06;;;57.06;12.90
50105;BME280;47690;39.202;-77.198;2023-07-16T03:18:02;99598.00;;;57.56;12.92
50105;BME280;47690;39.202;-77.198;2023-07-16T03:20:37;99595.41;;;57.15;12.80
50105;BME280;47690;39.202;-77.198;2023-07-16T03:23:06;99583.03;;;56.80;13.05
50105;BME280;47690;39.202;-77.198;2023-07-16T03:25:36;99575.19;;;56.70;13.50
50105;BME280;47690;39.202;-77.198;2023-07-16T03:28:08;99569.19;;;56.80;12.63
50105;BME280;47690;39.202;-77.198;2023-07-16T03:30:38;99563.31;;;56.53;13.34
50105;BME280;47690;39.202;-77.198;2023-07-16T03:33:10;99555.34;;;56.23;13.25
50105;BME280;47690;39.202;-77.198;2023-07-16T03:35:38;99562.59;;;56.28;13.59
50105;BME280;47690;39.202;-77.198;2023-07-16T03:38:13;99557.34;;;56.51;13.33
50105;BME280;47690;39.202;-77.198;2023-07-16T03:40:47;99554.25;;;56.69;12.64
50105;BME280;47690;39.202;-77.198;2023-07-16T03:43:18;99548.00;;;56.56;13.45
50105;BME280;47690;39.202;-77.198;2023-07-16T03:45:58;99548.00;;;56.56;12.71
50105;BME280;47690;39.202;-77.198;2023-07-16T03:48:28;99531.47;;;56.43;12.52
50105;BME280;47690;39.202;-77.198;2023-07-16T03:51:03;99544.34;;;56.39;13.34
50105;BME280;47690;39.202;-77.198;2023-07-16T03:53:36;99536.75;;;56.48;12.66
50105;BME280;47690;39.202;-77.198;2023-07-16T03:56:10;99537.19;;;56.50;13.29
50105;BME280;47690;39.202;-77.198;2023-07-16T03:58:42;99540.84;;;56.26;12.93
50105;BME280;47690;39.202;-77.198;2023-07-16T04:01:19;99549.28;;;56.46;12.80
50105;BME280;47690;39.202;-77.198;2023-07-16T04:04:02;99561.72;;;56.52;12.92
50105;BME280;47690;39.202;-77.198;2023-07-16T04:06:32;99552.00;;;56.58;12.59
50105;BME280;47690;39.202;-77.198;2023-07-16T04:09:04;99553.06;;;56.54;12.77
50105;BME280;47690;39.202;-77.198;2023-07-16T04:11:33;99571.56;;;56.37;13.16
50105;BME280;47690;39.202;-77.198;2023-07-16T04:14:07;99571.47;;;56.62;12.78
50105;BME280;47690;39.202;-77.198;2023-07-16T04:16:38;99576.13;;;55.79;13.53
50105;BME280;47690;39.202;-77.198;2023-07-16T04:19:08;99575.22;;;55.75;13.64
50105;BME280;47690;39.202;-77.198;2023-07-16T04:21:38;99578.56;;;55.81;13.26
50105;BME280;47690;39.202;-77.198;2023-07-16T04:24:12;99581.53;;;55.63;13.35
50105;BME280;47690;39.202;-77.198;2023-07-16T04:26:44;99598.16;;;56.42;13.56
50105;BME280;47690;39.202;-77.198;2023-07-16T04:29:22;99592.13;;;56.52;12.81
50105;BME280;47690;39.202;-77.198;2023-07-16T04:31:54;99600.47;;;56.27;12.53
50105;BME280;47690;39.202;-77.198;2023-07-16T04:34:27;99591.16;;;58.61;11.73
50105;BME280;47690;39.202;-77.198;2023-07-16T04:37:00;99590.50;;;56.80;12.71
50105;BME280;47690;39.202;-77.198;2023-07-16T04:39:30;99588.16;;;56.25;13.17
50105;BME280;47690;39.202;-77.198;2023-07-16T04:42:01;99575.75;;;56.06;12.79
50105;BME280;47690;39.202;-77.198;2023-07-16T04:44:30;99589.81;;;56.01;12.94
50105;BME280;47690;39.202;-77.198;2023-07-16T04:47:06;99591.16;;;56.60;12.38
50105;BME280;47690;39.202;-77.198;2023-07-16T04:49:37;99596.47;;;56.53;12.39
50105;BME280;47690;39.202;-77.198;2023-07-16T04:52:06;99592.75;;;56.61;12.23
50105;BME280;47690;39.202;-77.198;2023-07-16T04:54:41;99599.78;;;56.18;13.39
50105;BME280;47690;39.202;-77.198;2023-07-16T04:57:12;99599.75;;;56.43;13.07
50105;BME280;47690;39.202;-77.198;2023-07-16T04:59:42;99591.88;;;56.04;13.31
50105;BME280;47690;39.202;-77.198;2023-07-16T05:02:12;99587.63;;;55.94;12.97
50105;BME280;47690;39.202;-77.198;2023-07-16T05:04:46;99591.75;;;55.50;12.99
50105;BME280;47690;39.202;-77.198;2023-07-16T05:07:55;99581.50;;;56.13;12.71
50105;BME280;47690;39.202;-77.198;2023-07-16T05:10:36;99589.44;;;56.15;13.32
50105;BME280;47690;39.202;-77.198;2023-07-16T05:13:09;99590.38;;;56.19;12.91
50105;BME280;47690;39.202;-77.198;2023-07-16T05:15:38;99586.38;;;56.45;13.07
50105;BME280;47690;39.202;-77.198;2023-07-16T05:18:08;99576.72;;;56.39;12.87
50105;BME280;47690;39.202;-77.198;2023-07-16T05:20:40;99588.28;;;56.28;12.63
50105;BME280;47690;39.202;-77.198;2023-07-16T05:23:10;99581.88;;;56.12;12.46
50105;BME280;47690;39.202;-77.198;2023-07-16T05:25:49;99583.03;;;55.86;12.89
50105;BME280;47690;39.202;-77.198;2023-07-16T05:28:24;99587.09;;;56.42;13.08
50105;BME280;47690;39.202;-77.198;2023-07-16T05:31:01;99586.34;;;56.57;12.69
50105;BME280;47690;39.202;-77.198;2023-07-16T05:33:33;99597.22;;;56.38;12.83
50105;BME280;47690;39.202;-77.198;2023-07-16T05:36:05;99604.09;;;56.15;12.64
50105;BME280;47690;39.202;-77.198;2023-07-16T05:38:37;99602.81;;;56.13;13.24
50105;BME280;47690;39.202;-77.198;2023-07-16T05:41:08;99590.59;;;54.93;13.87
50105;BME280;47690;39.202;-77.198;2023-07-16T05:43:39;99586.66;;;54.81;13.70
50105;BME280;47690;39.202;-77.198;2023-07-16T05:46:15;99580.78;;;54.83;13.45
50105;BME280;47690;39.202;-77.198;2023-07-16T05:48:53;99576.31;;;55.24;13.12
50105;BME280;47690;39.202;-77.198;2023-07-16T05:51:25;99555.19;;;55.78;13.34
50105;BME280;47690;39.202;-77.198;2023-07-16T05:53:57;99535.75;;;55.62;13.51
50105;BME280;47690;39.202;-77.198;2023-07-16T05:56:27;99536.56;;;54.79;13.75
50105;BME280;47690;39.202;-77.198;2023-07-16T05:58:57;99533.72;;;54.54;13.64
50105;BME280;47690;39.202;-77.198;2023-07-16T06:01:31;99519.63;;;54.68;13.47
50105;BME280;47690;39.202;-77.198;2023-07-16T06:04:03;99521.81;;;54.41;14.30
50105;BME280;47690;39.202;-77.198;2023-07-16T06:06:32;99510.16;;;54.36;14.54
50105;BME280;47690;39.202;-77.198;2023-07-16T06:09:06;99507.56;;;55.44;13.13
50105;BME280;47690;39.202;-77.198;2023-07-16T06:11:36;99496.78;;;55.26;12.92
50105;BME280;47690;39.202;-77.198;2023-07-16T06:14:06;99496.03;;;55.05;13.13
50105;BME280;47690;39.202;-77.198;2023-07-16T06:16:38;99487.22;;;55.24;13.67
50105;BME280;47690;39.202;-77.198;2023-07-16T06:19:06;99490.81;;;54.44;13.72
50105;BME280;47690;39.202;-77.198;2023-07-16T06:21:42;99494.66;;;54.31;14.52
50105;BME280;47690;39.202;-77.198;2023-07-16T06:24:14;99485.59;;;53.88;14.38
50105;BME280;47690;39.202;-77.198;2023-07-16T06:26:44;99474.75;;;54.04;14.75
50105;BME280;47690;39.202;-77.198;2023-07-16T06:29:23;99475.38;;;55.36;13.52
50105;BME280;47690;39.202;-77.198;2023-07-16T06:31:58;99474.34;;;55.53;13.02
50105;BME280;47690;39.202;-77.198;2023-07-16T06:34:30;99474.25;;;55.49;13.68
50105;BME280;47690;39.202;-77.198;2023-07-16T06:37:01;99478.13;;;54.86;13.65
50105;BME280;47690;39.202;-77.198;2023-07-16T06:39:30;99474.78;;;55.05;13.69
50105;BME280;47690;39.202;-77.198;2023-07-16T06:42:02;99467.94;;;54.65;13.45
50105;BME280;47690;39.202;-77.198;2023-07-16T06:44:34;99470.50;;;54.15;13.97
50105;BME280;47690;39.202;-77.198;2023-07-16T06:47:04;99466.50;;;55.67;13.61
50105;BME280;47690;39.202;-77.198;2023-07-16T06:49:42;99464.22;;;55.45;13.53
50105;BME280;47690;39.202;-77.198;2023-07-16T06:52:25;99454.00;;;54.49;14.28
50105;BME280;47690;39.202;-77.198;2023-07-16T06:54:57;99447.19;;;54.13;14.21
50105;BME280;47690;39.202;-77.198;2023-07-16T06:57:38;99449.66;;;54.05;14.71
50105;BME280;47690;39.202;-77.198;2023-07-16T07:00:45;99436.94;;;55.68;13.37
50105;BME280;47690;39.202;-77.198;2023-07-16T07:03:21;99429.63;;;54.17;14.34
50105;BME280;47690;39.202;-77.198;2023-07-16T07:05:56;99420.72;;;54.20;13.88
50105;BME280;47690;39.202;-77.198;2023-07-16T07:08:28;99419.13;;;54.19;14.45
50105;BME280;47690;39.202;-77.198;2023-07-16T07:11:02;99408.88;;;54.20;14.92
50105;BME280;47690;39.202;-77.198;2023-07-16T07:13:33;99412.56;;;54.03;14.64
50105;BME280;47690;39.202;-77.198;2023-07-16T07:16:05;99409.81;;;54.24;14.01
50105;BME280;47690;39.202;-77.198;2023-07-16T07:18:39;99414.56;;;54.36;14.24
50105;BME280;47690;39.202;-77.198;2023-07-16T07:21:12;99424.34;;;54.12;14.29
50105;BME280;47690;39.202;-77.198;2023-07-16T07:23:54;99419.81;;;54.29;14.81
50105;BME280;47690;39.202;-77.198;2023-07-16T07:26:24;99400.78;;;54.36;13.95
50105;BME280;47690;39.202;-77.198;2023-07-16T07:28:58;99399.75;;;54.41;14.27
50105;BME280;47690;39.202;-77.198;2023-07-16T07:31:32;99395.78;;;54.51;14.56
50105;BME280;47690;39.202;-77.198;2023-07-16T07:34:06;99400.09;;;54.39;13.67
50105;BME280;47690;39.202;-77.198;2023-07-16T07:36:37;99404.63;;;54.56;13.63
50105;BME280;47690;39.202;-77.198;2023-07-16T07:39:09;99405.25;;;54.41;13.50
50105;BME280;47690;39.202;-77.198;2023-07-16T07:41:38;99404.19;;;54.20;13.77
50105;BME280;47690;39.202;-77.198;2023-07-16T07:44:13;99407.28;;;54.65;13.62
50105;BME280;47690;39.202;-77.198;2023-07-16T07:46:45;99396.25;;;54.53;14.03
50105;BME280;47690;39.202;-77.198;2023-07-16T07:49:22;99394.69;;;54.43;13.16
50105;BME280;47690;39.202;-77.198;2023-07-16T07:51:56;99394.97;;;54.50;13.70
50105;BME280;47690;39.202;-77.198;2023-07-16T07:54:32;99392.59;;;54.49;13.58
50105;BME280;47690;39.202;-77.198;2023-07-16T07:57:07;99393.31;;;54.37;14.19
50105;BME280;47690;39.202;-77.198;2023-07-16T07:59:39;99385.25;;;54.19;13.70
50105;BME280;47690;39.202;-77.198;2023-07-16T08:02:11;99373.66;;;54.26;14.21
50105;BME280;47690;39.202;-77.198;2023-07-16T08:04:42;99372.94;;;54.16;14.14
50105;BME280;47690;39.202;-77.198;2023-07-16T08:07:29;99369.66;;;54.36;13.87
50105;BME280;47690;39.202;-77.198;2023-07-16T08:10:03;99366.75;;;55.81;13.36
50105;BME280;47690;39.202;-77.198;2023-07-16T08:12:33;99358.00;;;55.51;13.42
50105;BME280;47690;39.202;-77.198;2023-07-16T08:15:09;99368.72;;;55.68;12.95
50105;BME280;47690;39.202;-77.198;2023-07-16T08:17:53;99358.94;;;56.00;12.40
50105;BME280;47690;39.202;-77.198;2023-07-16T08:20:28;99365.53;;;54.42;14.26
50105;BME280;47690;39.202;-77.198;2023-07-16T08:23:00;99364.06;;;54.44;13.45
50105;BME280;47690;39.202;-77.198;2023-07-16T08:25:32;99358.78;;;54.05;14.59
50105;BME280;47690;39.202;-77.198;2023-07-16T08:28:02;99354.03;;;53.93;14.30
50105;BME280;47690;39.202;-77.198;2023-07-16T08:30:34;99357.72;;;53.98;13.49
50105;BME280;47690;39.202;-77.198;2023-07-16T08:33:10;99352.09;;;53.94;14.14
50105;BME280;47690;39.202;-77.198;2023-07-16T08:35:46;99356.06;;;53.84;14.33
50105;BME280;47690;39.202;-77.198;2023-07-16T08:38:17;99350.19;;;55.81;12.41
50105;BME280;47690;39.202;-77.198;2023-07-16T08:40:49;99362.31;;;54.27;13.68
50105;BME280;47690;39.202;-77.198;2023-07-16T08:43:26;99355.13;;;54.47;14.03
50105;BME280;47690;39.202;-77.198;2023-07-16T08:45:56;99356.47;;;54.07;13.79
50105;BME280;47690;39.202;-77.198;2023-07-16T08:48:28;99363.13;;;54.06;14.10
50105;BME280;47690;39.202;-77.198;2023-07-16T08:51:02;99363.38;;;54.01;13.59
50105;BME280;47690;39.202;-77.198;2023-07-16T08:53:42;99364.81;;;54.20;13.64
50105;BME280;47690;39.202;-77.198;2023-07-16T08:56:13;99363.94;;;55.53;12.91
50105;BME280;47690;39.202;-77.198;2023-07-16T08:58:45;99357.19;;;54.63;14.01
50105;BME280;47690;39.202;-77.198;2023-07-16T09:01:18;99359.72;;;54.10;14.12
50105;BME280;47690;39.202;-77.198;2023-07-16T09:03:54;99361.84;;;54.25;13.34
50105;BME280;47690;39.202;-77.198;2023-07-16T09:06:28;99363.56;;;53.96;13.64
50105;BME280;47690;39.202;-77.198;2023-07-16T09:09:01;99360.72;;;54.39;13.19
50105;BME280;47690;39.202;-77.198;2023-07-16T09:11:33;99359.84;;;54.59;13.20
50105;BME280;47690;39.202;-77.198;2023-07-16T09:14:22;99357.13;;;54.26;14.20
50105;BME280;47690;39.202;-77.198;2023-07-16T09:16:53;99356.88;;;54.18;14.23
50105;BME280;47690;39.202;-77.198;2023-07-16T09:19:24;99364.69;;;54.16;13.54
50105;BME280;47690;39.202;-77.198;2023-07-16T09:21:55;99359.34;;;53.99;14.43
50105;BME280;47690;39.202;-77.198;2023-07-16T09:24:28;99355.47;;;55.33;13.18
50105;BME280;47690;39.202;-77.198;2023-07-16T09:26:58;99359.91;;;54.04;13.63
50105;BME280;47690;39.202;-77.198;2023-07-16T09:29:32;99352.59;;;54.09;14.31
50105;BME280;47690;39.202;-77.198;2023-07-16T09:32:05;99356.59;;;54.11;13.90
50105;BME280;47690;39.202;-77.198;2023-07-16T09:34:37;99368.06;;;54.01;13.83
50105;BME280;47690;39.202;-77.198;2023-07-16T09:37:10;99359.25;;;55.41;13.36
50105;BME280;47690;39.202;-77.198;2023-07-16T09:39:48;99358.25;;;56.03;12.59
50105;BME280;47690;39.202;-77.198;2023-07-16T09:42:45;99374.19;;;54.78;14.02
50105;BME280;47690;39.202;-77.198;2023-07-16T09:45:31;99378.91;;;54.52;13.85
50105;BME280;47690;39.202;-77.198;2023-07-16T09:48:06;99383.19;;;54.16;13.76
50105;BME280;47690;39.202;-77.198;2023-07-16T09:50:36;99385.50;;;55.10;13.36
50105;BME280;47690;39.202;-77.198;2023-07-16T09:53:08;99390.22;;;55.22;13.27
50105;BME280;47690;39.202;-77.198;2023-07-16T09:55:42;99381.16;;;54.38;14.11
50105;BME280;47690;39.202;-77.198;2023-07-16T09:58:27;99379.63;;;54.61;13.75
50105;BME280;47690;39.202;-77.198;2023-07-16T10:01:01;99378.97;;;54.43;14.08
50105;BME280;47690;39.202;-77.198;2023-07-16T10:03:35;99374.47;;;54.26;14.33
50105;BME280;47690;39.202;-77.198;2023-07-16T10:06:14;99385.03;;;55.33;13.76
50105;BME280;47690;39.202;-77.198;2023-07-16T10:08:49;99390.94;;;54.47;13.39
50105;BME280;47690;39.202;-77.198;2023-07-16T10:11:41;99399.06;;;54.31;13.50
50105;BME280;47690;39.202;-77.198;2023-07-16T10:14:26;99404.91;;;54.76;13.86
50105;BME280;47690;39.202;-77.198;2023-07-16T10:17:02;99401.59;;;55.86;12.84
50105;BME280;47690;39.202;-77.198;2023-07-16T10:19:46;99404.72;;;56.74;11.90
50105;BME280;47690;39.202;-77.198;2023-07-16T10:22:34;99410.88;;;55.53;12.89
50105;BME280;47690;39.202;-77.198;2023-07-16T10:27:53;99415.88;;;54.17;13.74
50105;BME280;47690;39.202;-77.198;2023-07-16T10:30:23;99419.97;;;55.94;13.05
50105;BME280;47690;39.202;-77.198;2023-07-16T10:32:56;99432.41;;;54.17;14.22
50105;BME280;47690;39.202;-77.198;2023-07-16T10:35:28;99437.44;;;55.33;13.55
50105;BME280;47690;39.202;-77.198;2023-07-16T10:38:06;99444.81;;;55.53;12.97
50105;BME280;47690;39.202;-77.198;2023-07-16T10:40:41;99447.66;;;54.82;13.39
50105;BME280;47690;39.202;-77.198;2023-07-16T10:43:23;99449.25;;;55.71;13.32
50105;BME280;47690;39.202;-77.198;2023-07-16T10:45:53;99463.38;;;57.67;11.73
50105;BME280;47690;39.202;-77.198;2023-07-16T10:48:26;99460.59;;;55.94;12.38
50105;BME280;47690;39.202;-77.198;2023-07-16T10:50:57;99457.56;;;54.50;13.44
50105;BME280;47690;39.202;-77.198;2023-07-16T10:53:28;99460.63;;;54.14;13.58
50105;BME280;47690;39.202;-77.198;2023-07-16T10:55:58;99467.97;;;55.90;13.16
50105;BME280;47690;39.202;-77.198;2023-07-16T10:58:32;99458.47;;;54.20;14.00
50105;BME280;47690;39.202;-77.198;2023-07-16T11:01:09;99460.78;;;54.09;14.13
50105;BME280;47690;39.202;-77.198;2023-07-16T11:03:41;99456.72;;;53.94;14.50
50105;BME280;47690;39.202;-77.198;2023-07-16T11:06:12;99457.81;;;53.80;14.12
50105;BME280;47690;39.202;-77.198;2023-07-16T11:08:43;99455.59;;;53.95;14.09
50105;BME280;47690;39.202;-77.198;2023-07-16T11:11:28;99458.31;;;54.38;14.08
50105;BME280;47690;39.202;-77.198;2023-07-16T11:14:00;99450.06;;;54.96;13.25
50105;BME280;47690;39.202;-77.198;2023-07-16T11:16:36;99453.84;;;54.45;14.14
50105;BME280;47690;39.202;-77.198;2023-07-16T11:19:08;99461.28;;;53.90;13.99
50105;BME280;47690;39.202;-77.198;2023-07-16T11:21:39;99462.50;;;53.80;14.76
50105;BME280;47690;39.202;-77.198;2023-07-16T11:24:12;99457.75;;;54.44;13.65
50105;BME280;47690;39.202;-77.198;2023-07-16T11:26:52;99458.72;;;54.27;14.58
50105;BME280;47690;39.202;-77.198;2023-07-16T11:29:21;99458.59;;;54.24;13.80
50105;BME280;47690;39.202;-77.198;2023-07-16T11:31:55;99469.03;;;54.18;13.85
50105;BME280;47690;39.202;-77.198;2023-07-16T11:34:25;99473.84;;;54.21;13.73
50105;BME280;47690;39.202;-77.198;2023-07-16T11:37:06;99466.13;;;54.14;14.16
50105;BME280;47690;39.202;-77.198;2023-07-16T11:39:35;99467.53;;;54.20;14.56
50105;BME280;47690;39.202;-77.198;2023-07-16T11:42:06;99459.63;;;54.19;14.02
50105;BME280;47690;39.202;-77.198;2023-07-16T11:44:36;99463.09;;;54.28;13.79
50105;BME280;47690;39.202;-77.198;2023-07-16T11:47:04;99455.06;;;54.23;13.58
50105;BME280;47690;39.202;-77.198;2023-07-16T11:49:34;99455.19;;;54.27;14.21
50105;BME280;47690;39.202;-77.198;2023-07-16T11:52:08;99461.53;;;54.40;14.36
50105;BME280;47690;39.202;-77.198;2023-07-16T11:54:38;99456.09;;;54.31;13.95
50105;BME280;47690;39.202;-77.198;2023-07-16T11:57:08;99449.91;;;54.34;13.89
50105;BME280;47690;39.202;-77.198;2023-07-16T11:59:42;99449.56;;;54.57;14.43
50105;BME280;47690;39.202;-77.198;2023-07-16T12:02:12;99447.03;;;54.30;14.57
50105;BME280;47690;39.202;-77.198;2023-07-16T12:04:45;99449.69;;;54.39;13.96
50105;BME280;47690;39.202;-77.198;2023-07-16T12:07:14;99457.38;;;54.33;14.43
50105;BME280;47690;39.202;-77.198;2023-07-16T12:09:49;99456.94;;;54.44;14.13
50105;BME280;47690;39.202;-77.198;2023-07-16T12:12:18;99450.50;;;54.73;13.92
50105;BME280;47690;39.202;-77.198;2023-07-16T12:14:49;99462.53;;;54.69;14.03
50105;BME280;47690;39.202;-77.198;2023-07-16T12:17:19;99469.28;;;54.59;14.14
50105;BME280;47690;39.202;-77.198;2023-07-16T12:19:54;99475.41;;;54.77;14.40
50105;BME280;47690;39.202;-77.198;2023-07-16T12:22:24;99470.91;;;54.60;14.49
50105;BME280;47690;39.202;-77.198;2023-07-16T12:24:53;99473.75;;;54.51;14.30
50105;BME280;47690;39.202;-77.198;2023-07-16T12:27:23;99475.88;;;54.45;13.90
50105;BME280;47690;39.202;-77.198;2023-07-16T12:29:55;99476.84;;;54.50;14.15
50105;BME280;47690;39.202;-77.198;2023-07-16T12:32:26;99478.22;;;54.56;14.16
50105;BME280;47690;39.202;-77.198;2023-07-16T12:34:55;99475.75;;;54.42;14.62
50105;BME280;47690;39.202;-77.198;2023-07-16T12:37:28;99475.72;;;54.51;14.52
50105;BME280;47690;39.202;-77.198;2023-07-16T12:40:02;99483.19;;;54.29;14.72
50105;BME280;47690;39.202;-77.198;2023-07-16T12:42:34;99483.19;;;54.29;14.03
50105;BME280;47690;39.202;-77.198;2023-07-16T12:45:04;99487.47;;;54.17;14.79
50105;BME280;47690;39.202;-77.198;2023-07-16T12:47:36;99496.97;;;54.29;14.31
50105;BME280;47690;39.202;-77.198;2023-07-16T12:50:10;99486.00;;;54.41;14.70
50105;BME280;47690;39.202;-77.198;2023-07-16T12:52:40;99489.75;;;54.58;14.16
50105;BME280;47690;39.202;-77.198;2023-07-16T12:55:14;99492.91;;;54.81;13.61
50105;BME280;47690;39.202;-77.198;2023-07-16T12:57:45;99486.38;;;54.52;14.06
50105;BME280;47690;39.202;-77.198;2023-07-16T13:00:16;99491.56;;;54.54;14.01
50105;BME280;47690;39.202;-77.198;2023-07-16T13:02:53;99494.56;;;54.61;14.08
50105;BME280;47690;39.202;-77.198;2023-07-16T13:05:26;99492.38;;;54.67;13.87
50105;BME280;47690;39.202;-77.198;2023-07-16T13:08:00;99487.88;;;54.96;14.13
50105;BME280;47690;39.202;-77.198;2023-07-16T13:10:36;99487.38;;;54.81;14.45
50105;BME280;47690;39.202;-77.198;2023-07-16T13:13:11;99484.84;;;54.76;13.68
50105;BME280;47690;39.202;-77.198;2023-07-16T13:15:43;99489.34;;;54.81;14.38
50105;BME280;47690;39.202;-77.198;2023-07-16T13:18:14;99484.03;;;54.75;13.84
50105;BME280;47690;39.202;-77.198;2023-07-16T13:20:49;99483.38;;;54.91;13.87
50105;BME280;47690;39.202;-77.198;2023-07-16T13:23:22;99485.47;;;54.94;14.35
50105;BME280;47690;39.202;-77.198;2023-07-16T13:25:58;99478.06;;;54.73;14.41
50105;BME280;47690;39.202;-77.198;2023-07-16T13:28:29;99483.16;;;54.84;14.12
50105;BME280;47690;39.202;-77.198;2023-07-16T13:31:00;99479.88;;;54.69;13.74
50105;BME280;47690;39.202;-77.198;2023-07-16T13:33:34;99482.94;;;55.01;13.70
50105;BME280;47690;39.202;-77.198;2023-07-16T13:36:06;99478.78;;;54.83;14.04
50105;BME280;47690;39.202;-77.198;2023-07-16T13:38:35;99474.97;;;54.75;14.75
50105;BME280;47690;39.202;-77.198;2023-07-16T13:41:04;99480.50;;;54.87;13.69
50105;BME280;47690;39.202;-77.198;2023-07-16T13:43:37;99465.25;;;55.03;13.95
50105;BME280;47690;39.202;-77.198;2023-07-16T13:46:08;99473.97;;;54.80;14.50
50105;BME280;47690;39.202;-77.198;2023-07-16T13:48:38;99459.47;;;54.83;14.32
50105;BME280;47690;39.202;-77.198;2023-07-16T13:51:29;99460.75;;;55.10;14.41